1987 MISSING (1987222N26266)


On this page: IBTrACS data - Map and Plots - Positions - Intensities - Original source data

Summary

Start Aug 9
End Aug 17
Basin NA
LMI 40 kt
Sources hurdat_atl
atcf
In WMO? Yes
Previous storm 1987 ARLENE (NA)
Previous in basin 1987 ARLENE (NA)
Concurrent storms 1987 BETTY (WP)
1987 CARY (WP)
1987 ARLENE (NA)
1987 MISSING (NA)
1987 TD0810 (WP)
1987 MISSING (NA)
1987 JOVA (EP)
Next in basin 1987 MISSING (NA)
Next storm 1987 TD0810 (WP)

top of page IBTrACS Data: File Access

top of page HURSAT Data: File Access

Image of storm

top of page Plots:

Map of storm track will not appear if FTP is down
Time series of cyclone Maximum Sustained Wind will not appear if FTP is down
Time series of cyclone Minimum Central Pressure will not appear if FTP is down

top of page Track Data:Position

hurdat_atl atcf
Date Lat Lon Lat Lon
1987-08-09 12:00:00 26.3 -93.6 26.3 -93.6
1987-08-09 18:00:00 27.3 -94.0 27.3 -94.0
1987-08-10 00:00:00 28.4 -94.4 28.4 -94.4
1987-08-10 06:00:00 29.5 -94.5 29.5 -94.5
1987-08-10 12:00:00 30.5 -94.5 30.5 -94.5
1987-08-10 18:00:00 31.3 -94.1 31.3 -94.1
1987-08-11 00:00:00 31.8 -93.5 31.8 -93.5
1987-08-11 06:00:00 32.3 -92.7 32.3 -92.7
1987-08-11 12:00:00 32.3 -91.8 32.3 -91.8
1987-08-11 18:00:00 32.2 -91.2 32.2 -91.2
1987-08-12 00:00:00 32.1 -90.6 32.1 -90.6
1987-08-12 06:00:00 32.0 -90.2 32.0 -90.2
1987-08-12 12:00:00 32.0 -89.7 32.0 -89.7
1987-08-12 18:00:00 32.0 -89.3 32.0 -89.3
1987-08-13 00:00:00 31.9 -88.8 31.9 -88.8
1987-08-13 06:00:00 31.8 -88.4 31.8 -88.4
1987-08-13 12:00:00 31.7 -88.0 31.7 -88.0
1987-08-13 18:00:00 31.5 -87.7 31.5 -87.7
1987-08-14 00:00:00 31.3 -87.4 31.3 -87.4
1987-08-14 06:00:00 31.1 -87.1 31.1 -87.1
1987-08-14 12:00:00 30.8 -86.8 30.8 -86.8
1987-08-14 18:00:00 30.6 -86.6 30.6 -86.6
1987-08-15 00:00:00 30.3 -86.3 30.3 -86.3
1987-08-15 06:00:00 30.0 -86.0 30.0 -86.0
1987-08-15 12:00:00 29.8 -85.6 29.8 -85.6
hurdat_atl atcf
1987-08-15 18:00:00 29.7 -85.0 29.7 -85.0
1987-08-16 00:00:00 29.8 -84.5 29.8 -84.5
1987-08-16 06:00:00 30.2 -84.0 30.2 -84.0
1987-08-16 12:00:00 30.5 -83.7 30.5 -83.7
1987-08-16 18:00:00 30.9 -83.2 30.9 -83.2
1987-08-17 00:00:00 31.4 -82.9 31.4 -82.9
1987-08-17 06:00:00 31.8 -82.3 31.8 -82.3

top of pageTrack Data:Intensity

hurdat_atl atcf
Date Wind Pres Wind Pres
1987-08-09 12:00:00 30. 1010. 30. 1010.
1987-08-09 18:00:00 35. 1008. 35. 1008.
1987-08-10 00:00:00 40. 1008. 40. 1008.
1987-08-10 06:00:00 40. 1009. 40. 1009.
1987-08-10 12:00:00 40. 1009. 40. 1009.
1987-08-10 18:00:00 30. 1009. 30. 1009.
1987-08-11 00:00:00 25. 1009. 25. 1009.
1987-08-11 06:00:00 25. 1009. 25. 1009.
1987-08-11 12:00:00 25. 1008. 25. 1008.
1987-08-11 18:00:00 25. 1008. 25. 1008.
1987-08-12 00:00:00 25. 1007. 25. 1007.
1987-08-12 06:00:00 25. 1007. 25. 1007.
1987-08-12 12:00:00 25. 1007. 25. 1007.
1987-08-12 18:00:00 20. 1007. 20. 1007.
1987-08-13 00:00:00 20. 1008. 20. 1008.
1987-08-13 06:00:00 20. 1008. 20. 1008.
1987-08-13 12:00:00 20. 1009. 20. 1009.
1987-08-13 18:00:00 15. 1009. 15. 1009.
1987-08-14 00:00:00 15. 1010. 15. 1010.
1987-08-14 06:00:00 15. 1010. 15. 1010.
1987-08-14 12:00:00 15. 1010. 15. 1010.
1987-08-14 18:00:00 15. 1011. 15. 1011.
1987-08-15 00:00:00 15. 1011. 15. 1011.
1987-08-15 06:00:00 15. 1011. 15. 1011.
1987-08-15 12:00:00 15. 1012. 15. 1012.
hurdat_atl atcf
1987-08-15 18:00:00 15. 1012. 15. 1012.
1987-08-16 00:00:00 15. 1013. 15. 1013.
1987-08-16 06:00:00 15. 1014. 15. 1014.
1987-08-16 12:00:00 15. 1014. 15. 1014.
1987-08-16 18:00:00 10. 1014. 10. 1014.
1987-08-17 00:00:00 10. 1015. 10. 1015.
1987-08-17 06:00:00 10. 1015. 10. 1015.

top of page Links to source data

Source Source file Format
hurdat_atl tracks1851to2011.txt:1137:NOT NAMED HURDAT
atcf bal031987.dat ATCF